Time;durP1;ratioP1;P1;durP2;ratioP2;P2;SDS_P1;SDS_P2;PMS_P1;PMS_P2;Temp;Humidity;BMP_temperature;BMP_pressure;BME280_temperature;BME280_humidity;BME280_pressure;Samples;Min_cycle;Max_cycle;Signal;HPM_P1;HPM_P2
2023/01/29 00:00:54;;;;;;;8.00;3.20;;;-1.60;99.90;;;;;;4153798;28;20438;-77
2023/01/29 00:02:56;;;;;;;7.27;3.40;;;-1.60;99.90;;;;;;4160809;28;20924;-77
2023/01/29 00:04:58;;;;;;;5.80;3.20;;;-1.60;99.90;;;;;;4171269;28;20449;-77
2023/01/29 00:07:00;;;;;;;5.57;2.93;;;-1.70;99.90;;;;;;4158906;28;20468;-76
2023/01/29 00:09:02;;;;;;;5.13;2.97;;;-1.70;99.90;;;;;;4160215;28;20445;-77
2023/01/29 00:11:07;;;;;;;7.32;3.08;;;-1.70;99.90;;;;;;4160205;28;20442;-77
2023/01/29 00:13:10;;;;;;;8.80;3.63;;;-1.70;99.90;;;;;;4151791;28;20227;-77
2023/01/29 00:15:12;;;;;;;7.17;3.60;;;-1.80;99.90;;;;;;4156882;28;20450;-77
2023/01/29 00:17:16;;;;;;;7.13;3.43;;;-1.80;99.90;;;;;;4155861;28;20461;-76
2023/01/29 00:19:18;;;;;;;5.90;3.20;;;-1.80;99.90;;;;;;4158442;28;20454;-76
2023/01/29 00:21:22;;;;;;;5.50;3.27;;;-1.80;99.90;;;;;;4156993;28;20446;-77
2023/01/29 00:23:24;;;;;;;5.40;3.43;;;-1.80;99.90;;;;;;4159988;28;20641;-77
2023/01/29 00:25:28;;;;;;;5.47;3.60;;;-1.80;99.90;;;;;;4161524;28;20485;-77
2023/01/29 00:27:30;;;;;;;5.33;3.40;;;-1.80;99.90;;;;;;4154429;28;20478;-77
2023/01/29 00:29:33;;;;;;;9.02;3.90;;;-1.70;99.90;;;;;;4156152;28;20462;-77
2023/01/29 00:31:35;;;;;;;8.30;4.17;;;-1.90;99.90;;;;;;4153809;28;20203;-78
2023/01/29 00:33:37;;;;;;;5.67;3.43;;;-1.90;99.90;;;;;;4155430;28;20501;-78
2023/01/29 00:35:40;;;;;;;7.07;3.80;;;-1.90;99.90;;;;;;4156225;28;20465;-78
2023/01/29 00:37:42;;;;;;;6.00;3.43;;;-1.90;99.90;;;;;;4153868;28;20450;-77
2023/01/29 00:39:44;;;;;;;6.53;3.40;;;-1.90;99.90;;;;;;4157216;28;20462;-77
2023/01/29 00:46:27;;;;;;;8.73;4.22;;;-2.00;99.90;;;;;;4154853;28;20470;-77
2023/01/29 00:48:29;;;;;;;5.93;3.90;;;-2.00;99.90;;;;;;4154624;28;20203;-77
2023/01/29 00:50:31;;;;;;;7.27;3.70;;;-2.00;99.90;;;;;;4151900;28;20462;-77
2023/01/29 00:52:35;;;;;;;6.70;3.95;;;-2.00;99.90;;;;;;4152407;28;20492;-77
2023/01/29 00:54:37;;;;;;;9.23;3.92;;;-2.70;99.90;;;;;;4151746;28;20208;-77
2023/01/29 00:56:39;;;;;;;8.23;4.22;;;-1.90;99.90;;;;;;4153604;28;20235;-77
2023/01/29 00:58:41;;;;;;;6.73;3.80;;;-2.00;99.90;;;;;;4155605;28;20207;-77
2023/01/29 01:00:45;;;;;;;6.50;4.00;;;-1.70;99.90;;;;;;4153790;28;20553;-77
2023/01/29 01:03:04;;;;;;;8.13;3.72;;;-2.10;99.90;;;;;;4158876;28;20284;-77
2023/01/29 01:05:09;;;;;;;7.78;3.95;;;-2.10;99.90;;;;;;4159825;28;20218;-77
2023/01/29 01:07:11;;;;;;;8.50;4.10;;;-2.10;99.90;;;;;;4155657;28;20227;-76
2023/01/29 01:11:33;;;;;;;7.77;4.27;;;-2.20;99.90;;;;;;4151906;28;20616;-76
2023/01/29 01:13:38;;;;;;;7.93;4.45;;;-2.20;99.90;;;;;;4155302;28;20442;-77
2023/01/29 01:15:40;;;;;;;11.27;4.30;;;-2.20;99.90;;;;;;4154890;28;20211;-77
2023/01/29 01:17:42;;;;;;;10.65;4.75;;;-2.10;99.90;;;;;;4152311;28;20458;-77
2023/01/29 01:19:46;;;;;;;7.97;4.68;;;-2.20;99.90;;;;;;4160740;28;20306;-77
2023/01/29 01:21:47;;;;;;;10.27;4.82;;;-2.10;99.90;;;;;;4158576;28;20693;-77
2023/01/29 01:23:50;;;;;;;11.02;5.13;;;-2.20;99.90;;;;;;4156596;28;20227;-77
2023/01/29 01:25:52;;;;;;;11.18;4.82;;;-2.20;99.90;;;;;;4156888;28;20207;-76
2023/01/29 01:27:55;;;;;;;9.37;4.87;;;-2.20;99.90;;;;;;4156567;28;20275;-77
2023/01/29 01:29:57;;;;;;;12.45;4.78;;;-2.30;99.90;;;;;;4160542;28;20461;-77
2023/01/29 01:31:59;;;;;;;10.88;4.93;;;-2.20;99.90;;;;;;4160298;28;20222;-78
2023/01/29 01:34:01;;;;;;;9.80;4.50;;;-2.20;99.90;;;;;;4154002;28;20211;-77
2023/01/29 01:36:08;;;;;;;9.13;4.72;;;-2.30;99.90;;;;;;4153204;28;20574;-77
2023/01/29 01:38:10;;;;;;;13.75;5.18;;;-2.30;99.90;;;;;;4153186;28;20261;-76
2023/01/29 01:40:17;;;;;;;10.93;5.10;;;-2.30;99.90;;;;;;4156774;28;20235;-77
2023/01/29 01:42:19;;;;;;;12.15;5.63;;;-2.30;99.90;;;;;;4155337;28;20297;-77
2023/01/29 01:44:53;;;;;;;11.50;5.45;;;-2.30;99.90;;;;;;4155179;28;20327;-77
2023/01/29 01:46:56;;;;;;;14.40;6.25;;;-2.40;99.90;;;;;;4155853;28;20763;-77
2023/01/29 01:49:04;;;;;;;12.13;5.35;;;-2.40;99.90;;;;;;4157226;28;20662;-77
2023/01/29 01:51:08;;;;;;;13.65;5.40;;;-1.70;99.90;;;;;;4159987;28;20238;-77
2023/01/29 01:53:12;;;;;;;10.50;5.17;;;-2.40;99.90;;;;;;4158443;28;20294;-77
2023/01/29 01:55:19;;;;;;;10.95;5.90;;;-2.40;99.90;;;;;;4154749;28;20466;-77
2023/01/29 01:57:25;;;;;;;10.52;5.70;;;-2.40;99.90;;;;;;4151795;28;20319;-77
2023/01/29 01:59:27;;;;;;;9.90;5.43;;;-2.40;99.90;;;;;;4155380;28;20214;-77
2023/01/29 02:01:29;;;;;;;9.75;5.38;;;-2.40;99.90;;;;;;4156596;28;20709;-77
2023/01/29 02:10:49;;;;;;;11.52;5.40;;;-2.50;99.90;;;;;;4151071;28;21134;-77
2023/01/29 02:12:51;;;;;;;11.65;5.90;;;-2.50;99.90;;;;;;4159928;28;20269;-77
2023/01/29 02:14:53;;;;;;;13.00;5.88;;;-2.50;99.90;;;;;;4152583;28;20235;-77
2023/01/29 02:16:55;;;;;;;12.63;5.53;;;-2.60;99.90;;;;;;4154538;28;20267;-77
2023/01/29 02:18:57;;;;;;;12.35;5.78;;;-2.50;99.90;;;;;;4149632;28;20607;-77
2023/01/29 02:21:14;;;;;;;12.30;6.13;;;-2.60;99.90;;;;;;4154954;28;20689;-77
2023/01/29 02:23:56;;;;;;;11.93;5.50;;;-2.60;99.90;;;;;;4155387;28;20235;-77
2023/01/29 02:26:25;;;;;;;13.57;5.80;;;-2.60;99.90;;;;;;4135929;28;20323;-76
2023/01/29 02:28:40;;;;;;;14.02;5.90;;;-2.60;99.90;;;;;;4136996;28;20212;-77
2023/01/29 02:30:47;;;;;;;11.63;6.35;;;-2.60;99.90;;;;;;4157090;28;20218;-77
2023/01/29 02:32:57;;;;;;;15.70;6.50;;;-2.60;99.90;;;;;;4155199;28;20306;-77
2023/01/29 02:35:28;;;;;;;13.95;6.15;;;-2.60;99.90;;;;;;4157131;28;20269;-77
2023/01/29 02:37:36;;;;;;;14.68;6.57;;;-2.60;99.90;;;;;;4152740;28;20231;-77
2023/01/29 02:39:46;;;;;;;15.00;6.55;;;-2.50;99.90;;;;;;4153372;28;20244;-77
2023/01/29 02:41:55;;;;;;;15.48;6.00;;;-2.60;99.90;;;;;;4153319;28;20844;-77
2023/01/29 02:44:05;;;;;;;18.60;6.70;;;-2.60;99.90;;;;;;4154765;28;20614;-77
2023/01/29 02:46:13;;;;;;;12.65;6.50;;;-2.70;99.90;;;;;;4153701;28;20584;-78
2023/01/29 02:48:19;;;;;;;13.63;6.30;;;-2.70;99.90;;;;;;4150564;28;20213;-77
2023/01/29 02:50:29;;;;;;;16.83;7.07;;;-2.70;99.90;;;;;;4152993;28;20220;-77
2023/01/29 02:52:37;;;;;;;11.77;6.32;;;-2.70;99.90;;;;;;4153096;28;20218;-78
2023/01/29 02:54:44;;;;;;;13.07;7.22;;;-2.70;99.90;;;;;;4154518;28;20309;-78
2023/01/29 02:56:51;;;;;;;16.73;7.60;;;-2.70;99.90;;;;;;4155461;28;20220;-78
2023/01/29 02:59:00;;;;;;;13.82;6.75;;;-2.80;99.90;;;;;;4157195;28;20704;-77
2023/01/29 03:01:07;;;;;;;16.25;7.30;;;-2.70;99.90;;;;;;4153903;28;20214;-77
2023/01/29 03:03:16;;;;;;;14.25;7.03;;;-2.70;99.90;;;;;;4153448;28;20305;-77
2023/01/29 03:05:25;;;;;;;15.38;7.10;;;-2.70;99.90;;;;;;4150549;28;20235;-77
2023/01/29 03:07:43;;;;;;;15.63;7.32;;;-2.70;99.90;;;;;;4150924;28;20346;-77
2023/01/29 03:09:50;;;;;;;14.73;7.10;;;-2.70;99.90;;;;;;4152215;28;20310;-77
2023/01/29 03:11:55;;;;;;;17.88;7.22;;;-2.70;99.90;;;;;;4154262;28;20212;-77
2023/01/29 03:14:03;;;;;;;16.17;7.45;;;-2.70;99.90;;;;;;4155780;28;20202;-77
2023/01/29 03:16:11;;;;;;;17.10;6.85;;;-2.70;99.90;;;;;;4154010;28;20639;-77
2023/01/29 03:18:20;;;;;;;18.65;8.00;;;-2.70;99.90;;;;;;4155321;28;20230;-77
2023/01/29 03:20:28;;;;;;;15.52;7.25;;;-2.70;99.90;;;;;;4170593;28;20242;-77
2023/01/29 03:22:29;;;;;;;13.48;6.65;;;-2.80;99.90;;;;;;4153955;28;20233;-77
2023/01/29 03:34:08;;;;;;;17.17;7.40;;;-2.80;99.90;;;;;;4153961;28;20561;-77
2023/01/29 03:36:16;;;;;;;16.60;7.63;;;-2.80;99.90;;;;;;4152962;28;20640;-77
2023/01/29 03:38:19;;;;;;;15.95;7.05;;;-2.80;99.90;;;;;;4152570;28;20836;-77
2023/01/29 03:40:21;;;;;;;20.45;7.43;;;-2.80;99.90;;;;;;4156362;28;20309;-77
2023/01/29 03:42:29;;;;;;;18.02;8.15;;;-2.80;99.90;;;;;;4152501;28;20207;-77
2023/01/29 03:44:39;;;;;;;14.75;6.72;;;-2.90;99.90;;;;;;4160707;28;20724;-77
2023/01/29 03:46:48;;;;;;;19.25;7.35;;;-2.90;99.90;;;;;;4156573;28;20900;-77
2023/01/29 03:48:55;;;;;;;17.80;8.10;;;-2.90;99.90;;;;;;4160145;28;20214;-77
2023/01/29 03:51:06;;;;;;;17.48;8.35;;;-2.90;99.90;;;;;;4161062;28;20682;-77
2023/01/29 03:53:19;;;;;;;18.25;7.85;;;-2.90;99.90;;;;;;4154848;28;20231;-77
2023/01/29 03:55:28;;;;;;;16.08;7.65;;;-2.90;99.90;;;;;;4158894;28;20274;-77
2023/01/29 03:57:38;;;;;;;19.15;8.48;;;-2.90;99.90;;;;;;4159584;28;20309;-76
2023/01/29 03:59:50;;;;;;;16.02;7.13;;;-2.90;99.90;;;;;;4155577;28;20247;-77
2023/01/29 04:01:55;;;;;;;16.70;7.30;;;-2.90;99.90;;;;;;4155731;28;20985;-77
2023/01/29 04:04:03;;;;;;;15.20;7.00;;;-2.90;99.90;;;;;;4157076;28;20253;-77
2023/01/29 04:06:11;;;;;;;17.17;7.53;;;-2.90;99.90;;;;;;4154371;28;20318;-77
2023/01/29 04:08:19;;;;;;;16.98;7.55;;;-3.00;99.90;;;;;;4152485;28;20268;-77
2023/01/29 04:10:25;;;;;;;17.25;7.82;;;-2.90;99.90;;;;;;4154048;28;20212;-77
2023/01/29 04:12:30;;;;;;;17.10;7.82;;;-2.90;99.90;;;;;;4154132;28;20208;-77
2023/01/29 04:14:33;;;;;;;16.35;7.45;;;-3.00;99.90;;;;;;4154388;28;20255;-77
2023/01/29 04:16:39;;;;;;;16.83;7.85;;;-2.90;99.90;;;;;;4155714;28;20254;-76
2023/01/29 04:18:45;;;;;;;15.63;7.50;;;-2.90;99.90;;;;;;4156346;28;20245;-77
2023/01/29 04:20:47;;;;;;;15.25;7.25;;;-2.90;99.90;;;;;;4157566;28;20989;-77
2023/01/29 04:22:52;;;;;;;16.80;7.85;;;-3.00;99.90;;;;;;4154387;28;20215;-77
2023/01/29 04:25:01;;;;;;;19.55;8.45;;;-2.50;99.90;;;;;;4153156;28;20223;-77
2023/01/29 04:27:20;;;;;;;18.85;8.52;;;-3.00;99.90;;;;;;4153866;28;20223;-76
2023/01/29 04:29:34;;;;;;;18.90;8.02;;;-3.00;99.90;;;;;;4154020;28;20269;-77
2023/01/29 04:31:45;;;;;;;19.23;8.32;;;-3.00;99.90;;;;;;4151387;28;20238;-76
2023/01/29 04:33:59;;;;;;;17.80;7.50;;;-3.00;99.90;;;;;;4152952;28;20298;-77
2023/01/29 04:36:17;;;;;;;17.52;7.85;;;-3.00;99.90;;;;;;4154439;28;20207;-77
2023/01/29 04:38:27;;;;;;;17.85;8.05;;;-3.00;99.90;;;;;;4150168;28;20212;-76
2023/01/29 04:40:33;;;;;;;17.05;7.63;;;-3.00;99.90;;;;;;4153571;28;20199;-77
2023/01/29 04:42:44;;;;;;;19.48;7.93;;;-2.70;99.90;;;;;;4151782;28;20195;-76
2023/01/29 04:44:54;;;;;;;16.75;7.80;;;-3.00;99.90;;;;;;4156211;28;20215;-76
2023/01/29 04:47:06;;;;;;;23.50;8.63;;;-3.00;99.90;;;;;;4165756;28;20261;-76
2023/01/29 04:49:17;;;;;;;16.73;7.57;;;-3.00;99.90;;;;;;4152253;28;20261;-77
2023/01/29 04:51:25;;;;;;;18.08;8.02;;;-3.00;99.90;;;;;;4155485;28;20209;-76
2023/01/29 04:53:35;;;;;;;19.00;7.97;;;-3.00;99.90;;;;;;4160307;28;20200;-77
2023/01/29 04:55:43;;;;;;;18.73;7.65;;;-3.00;99.90;;;;;;4158604;28;20203;-76
2023/01/29 04:57:51;;;;;;;14.38;6.57;;;-3.00;99.90;;;;;;4153593;28;20199;-76
2023/01/29 05:00:00;;;;;;;18.20;8.65;;;-2.90;99.90;;;;;;4154194;28;20272;-76
2023/01/29 05:02:04;;;;;;;14.13;6.82;;;-3.00;99.90;;;;;;4160931;28;20293;-76
2023/01/29 05:04:11;;;;;;;17.20;8.05;;;-3.00;99.90;;;;;;4171969;28;20202;-76
2023/01/29 05:06:14;;;;;;;18.23;7.95;;;-3.00;99.90;;;;;;4156239;28;20231;-76
2023/01/29 05:08:22;;;;;;;18.95;8.43;;;-2.90;99.90;;;;;;4161829;28;20214;-76
2023/01/29 05:10:26;;;;;;;17.17;7.03;;;-2.90;99.90;;;;;;4169837;28;20217;-76
2023/01/29 05:12:29;;;;;;;17.80;8.13;;;-3.00;99.90;;;;;;4154933;28;20422;-76
2023/01/29 05:14:34;;;;;;;17.08;7.65;;;-2.90;99.90;;;;;;4153301;28;20215;-76
2023/01/29 05:16:42;;;;;;;20.33;8.10;;;-2.90;99.90;;;;;;4153384;28;20240;-76
2023/01/29 05:18:46;;;;;;;16.42;7.47;;;-2.90;99.90;;;;;;4157915;28;20217;-76
2023/01/29 05:20:49;;;;;;;18.60;7.75;;;-2.90;99.90;;;;;;4151762;28;20286;-76
2023/01/29 05:22:51;;;;;;;18.52;8.00;;;-2.90;99.90;;;;;;4155849;28;20210;-75
2023/01/29 05:24:53;;;;;;;17.33;7.35;;;-2.90;99.90;;;;;;4156560;28;20655;-76
2023/01/29 05:29:16;;;;;;;15.77;7.63;;;-2.80;99.90;;;;;;4157352;28;20237;-76
2023/01/29 05:31:18;;;;;;;17.92;7.63;;;-2.80;99.90;;;;;;4152840;28;20297;-76
2023/01/29 05:33:22;;;;;;;15.57;7.68;;;-2.90;99.90;;;;;;4157102;28;20207;-76
2023/01/29 05:35:27;;;;;;;19.30;8.32;;;-2.80;99.90;;;;;;4171612;28;20191;-76
2023/01/29 05:37:29;;;;;;;18.10;8.55;;;-2.80;99.90;;;;;;4152056;28;20319;-76
2023/01/29 05:39:31;;;;;;;18.15;8.23;;;-2.80;99.90;;;;;;4155040;28;20676;-76
2023/01/29 05:41:33;;;;;;;17.13;8.13;;;-2.80;99.90;;;;;;4153445;28;20242;-76
2023/01/29 05:43:35;;;;;;;16.27;7.60;;;-2.70;99.90;;;;;;4149000;28;20208;-76
2023/01/29 05:45:37;;;;;;;16.05;7.60;;;-2.80;99.90;;;;;;4155346;28;20251;-76
2023/01/29 05:47:39;;;;;;;16.50;7.45;;;-2.50;99.90;;;;;;4158378;28;20231;-76
2023/01/29 05:49:40;;;;;;;17.33;8.05;;;-2.70;99.90;;;;;;4159833;28;20207;-76
2023/01/29 05:51:44;;;;;;;18.45;8.20;;;-2.70;99.90;;;;;;4149555;28;20231;-75
2023/01/29 05:53:46;;;;;;;17.70;7.80;;;-2.70;99.90;;;;;;4159249;28;20306;-76
2023/01/29 05:55:48;;;;;;;16.40;7.65;;;-2.70;99.90;;;;;;4150348;28;20208;-76
2023/01/29 05:57:50;;;;;;;19.70;8.27;;;-2.70;99.90;;;;;;4153804;28;20228;-76
2023/01/29 05:59:52;;;;;;;17.23;7.45;;;-2.70;99.90;;;;;;4147026;28;20294;-76
2023/01/29 06:01:53;;;;;;;17.13;7.50;;;-2.70;99.90;;;;;;4152688;28;20334;-76
2023/01/29 06:03:55;;;;;;;16.63;7.82;;;-2.70;99.90;;;;;;4151194;28;20771;-76
2023/01/29 06:05:57;;;;;;;14.88;7.82;;;-2.70;99.90;;;;;;4150684;28;20307;-76
2023/01/29 06:08:00;;;;;;;18.33;8.25;;;-2.70;99.90;;;;;;4158505;28;20257;-76
2023/01/29 06:10:02;;;;;;;18.23;7.93;;;-2.60;99.90;;;;;;4151416;28;20258;-76
2023/01/29 06:12:06;;;;;;;17.85;8.25;;;-2.60;99.90;;;;;;4153168;28;20199;-76
2023/01/29 06:14:08;;;;;;;15.00;7.63;;;-2.60;99.90;;;;;;4148532;28;20266;-76
2023/01/29 06:16:12;;;;;;;17.65;7.53;;;-2.60;99.90;;;;;;4153301;28;20215;-76
2023/01/29 06:18:14;;;;;;;17.92;8.90;;;-2.60;99.90;;;;;;4155403;28;20234;-76
2023/01/29 06:20:16;;;;;;;17.90;8.30;;;-2.60;99.90;;;;;;4154221;28;20249;-76
2023/01/29 06:22:18;;;;;;;16.35;7.95;;;-2.50;99.90;;;;;;4151050;28;20234;-75
2023/01/29 06:24:21;;;;;;;14.88;7.82;;;-2.60;99.90;;;;;;4149673;28;20196;-76
2023/01/29 06:26:23;;;;;;;15.48;7.10;;;-2.50;99.90;;;;;;4157191;28;20221;-76
2023/01/29 06:28:25;;;;;;;15.60;7.55;;;-2.50;99.90;;;;;;4172735;28;20221;-75
2023/01/29 06:30:28;;;;;;;16.15;7.65;;;-2.50;99.90;;;;;;4152302;28;20204;-75
2023/01/29 06:32:29;;;;;;;16.23;7.53;;;-2.50;99.90;;;;;;4146790;28;20204;-76
2023/01/29 06:34:31;;;;;;;16.88;7.78;;;-2.50;99.90;;;;;;4151832;28;20215;-75
2023/01/29 06:36:34;;;;;;;21.17;8.25;;;-2.50;99.90;;;;;;4153863;28;20231;-75
2023/01/29 06:38:36;;;;;;;18.67;8.45;;;-2.10;99.90;;;;;;4153085;28;20227;-76
2023/01/29 06:40:40;;;;;;;20.42;7.72;;;-2.40;99.90;;;;;;4158433;28;20269;-75
2023/01/29 06:42:42;;;;;;;17.45;7.95;;;-2.40;99.90;;;;;;4156154;28;20215;-75
2023/01/29 06:44:44;;;;;;;20.05;8.65;;;-2.40;99.90;;;;;;4151854;28;20231;-75
2023/01/29 06:46:46;;;;;;;19.70;8.63;;;-2.40;99.90;;;;;;4174453;28;20235;-75
2023/01/29 06:48:48;;;;;;;15.20;7.53;;;-2.40;99.90;;;;;;4155511;28;20226;-75
2023/01/29 06:50:53;;;;;;;15.63;7.65;;;-2.40;99.90;;;;;;4159543;28;20200;-75
2023/01/29 06:52:55;;;;;;;17.10;7.78;;;-2.40;99.90;;;;;;4154117;28;20286;-75
2023/01/29 06:54:57;;;;;;;19.50;8.50;;;-2.30;99.90;;;;;;4151529;28;20673;-75
2023/01/29 06:57:00;;;;;;;18.80;8.07;;;-2.30;99.90;;;;;;4158797;28;20238;-75
2023/01/29 06:59:02;;;;;;;18.73;8.23;;;-2.30;99.90;;;;;;4156195;28;20207;-75
2023/01/29 07:01:05;;;;;;;18.75;8.70;;;-2.30;99.90;;;;;;4154273;28;20290;-76
2023/01/29 07:03:09;;;;;;;18.40;8.25;;;-2.30;99.90;;;;;;4158888;28;20223;-75
2023/01/29 07:05:11;;;;;;;15.73;8.00;;;-2.30;99.90;;;;;;4150186;28;20302;-75
2023/01/29 07:07:13;;;;;;;19.60;8.82;;;-2.30;99.90;;;;;;4152980;28;20242;-75
2023/01/29 07:09:16;;;;;;;18.88;8.82;;;-2.20;99.90;;;;;;4150887;28;20299;-75
2023/01/29 07:11:18;;;;;;;17.33;8.55;;;-2.20;99.90;;;;;;4154566;28;20211;-75
2023/01/29 07:13:21;;;;;;;18.63;8.32;;;-2.20;99.90;;;;;;4155991;28;20207;-75
2023/01/29 07:15:23;;;;;;;20.67;9.00;;;-2.20;99.90;;;;;;4156127;28;20257;-75
2023/01/29 07:17:25;;;;;;;15.27;7.60;;;-2.20;99.90;;;;;;4152368;28;20224;-75
2023/01/29 07:19:30;;;;;;;18.05;8.45;;;-2.20;99.90;;;;;;4156194;28;20199;-75
2023/01/29 07:21:31;;;;;;;19.02;8.35;;;-2.20;99.90;;;;;;4153064;28;20239;-76
2023/01/29 07:23:34;;;;;;;18.55;8.82;;;-2.20;99.90;;;;;;4151081;28;20211;-75
2023/01/29 07:25:36;;;;;;;16.20;8.07;;;-2.10;99.90;;;;;;4157395;28;20226;-75
2023/01/29 07:27:38;;;;;;;18.13;8.48;;;-2.10;99.90;;;;;;4160054;28;20929;-76
2023/01/29 07:29:41;;;;;;;16.23;8.20;;;-2.10;99.90;;;;;;4153543;28;20203;-75
2023/01/29 07:31:43;;;;;;;18.13;8.93;;;-2.10;99.90;;;;;;4150569;28;20466;-76
2023/01/29 07:33:45;;;;;;;19.50;9.13;;;-2.10;99.90;;;;;;4153714;28;20465;-75
2023/01/29 07:35:47;;;;;;;17.43;9.20;;;-2.10;99.90;;;;;;4154207;28;21049;-75
2023/01/29 07:37:50;;;;;;;19.98;8.80;;;-2.10;99.90;;;;;;4157965;28;20861;-76
2023/01/29 07:39:52;;;;;;;18.37;8.37;;;-2.00;99.90;;;;;;4155455;28;20215;-75
2023/01/29 07:41:54;;;;;;;16.97;8.63;;;-2.00;99.90;;;;;;4147782;28;20462;-75
2023/01/29 07:43:55;;;;;;;17.23;8.73;;;-2.00;99.90;;;;;;4154571;28;20485;-75
2023/01/29 07:46:03;;;;;;;20.67;9.43;;;-2.00;99.90;;;;;;4157030;28;20890;-75
2023/01/29 07:48:06;;;;;;;18.97;8.63;;;-2.00;99.90;;;;;;4154310;28;20446;-75
2023/01/29 07:50:09;;;;;;;18.37;8.47;;;-2.00;99.90;;;;;;4153202;28;20877;-75
2023/01/29 07:52:11;;;;;;;25.08;9.55;;;-1.90;99.90;;;;;;4155054;28;20969;-75
2023/01/29 07:54:13;;;;;;;21.67;9.53;;;-1.90;99.90;;;;;;4152187;28;20204;-75
2023/01/29 07:56:15;;;;;;;17.13;8.70;;;-1.90;99.90;;;;;;4156883;28;20553;-75
2023/01/29 07:58:17;;;;;;;19.20;8.93;;;-1.90;99.90;;;;;;4151665;28;20524;-75
2023/01/29 08:00:20;;;;;;;22.47;8.73;;;-1.80;99.90;;;;;;4154796;28;20569;-75
2023/01/29 08:02:23;;;;;;;18.57;8.87;;;-1.80;99.90;;;;;;4157176;28;20465;-75
2023/01/29 08:04:25;;;;;;;20.77;9.43;;;-1.90;99.90;;;;;;4155062;28;20442;-76
2023/01/29 08:06:27;;;;;;;18.03;9.13;;;-1.80;99.90;;;;;;4154054;28;20529;-75
2023/01/29 08:08:29;;;;;;;20.60;8.93;;;-1.80;99.90;;;;;;4157707;28;20458;-75
2023/01/29 08:10:31;;;;;;;18.60;9.07;;;-1.80;99.90;;;;;;4153571;28;20449;-75
2023/01/29 08:12:33;;;;;;;22.80;9.80;;;-1.80;99.90;;;;;;4156270;28;20464;-75
2023/01/29 08:14:35;;;;;;;23.00;10.70;;;-1.80;99.90;;;;;;4154600;28;20469;-75
2023/01/29 08:16:39;;;;;;;23.13;9.97;;;-1.80;99.90;;;;;;4155008;28;21157;-75
2023/01/29 08:18:46;;;;;;;23.20;10.63;;;-1.80;99.90;;;;;;4153145;28;20948;-75
2023/01/29 08:20:48;;;;;;;29.10;11.70;;;-1.80;99.90;;;;;;4155896;28;20828;-75
2023/01/29 08:22:58;;;;;;;23.17;10.43;;;-1.80;99.90;;;;;;4152383;28;20458;-76
2023/01/29 08:24:59;;;;;;;26.10;11.50;;;-1.70;99.90;;;;;;4172339;28;20465;-76
2023/01/29 08:27:01;;;;;;;22.07;9.63;;;-1.70;99.90;;;;;;4172887;28;20527;-76
2023/01/29 08:29:03;;;;;;;18.40;9.03;;;-1.70;99.90;;;;;;4154691;28;20476;-76
2023/01/29 08:31:12;;;;;;;24.27;10.10;;;-1.70;99.90;;;;;;4153015;28;20455;-75
2023/01/29 08:33:14;;;;;;;20.20;9.10;;;-1.60;99.90;;;;;;4153477;28;20480;-76
2023/01/29 08:35:18;;;;;;;19.97;9.20;;;-1.60;99.90;;;;;;4154923;28;20537;-75
2023/01/29 08:37:20;;;;;;;20.00;9.37;;;-1.60;99.90;;;;;;4154370;28;20505;-75
2023/01/29 08:39:22;;;;;;;19.33;9.83;;;-1.60;99.90;;;;;;4167921;28;20449;-75
2023/01/29 08:41:23;;;;;;;19.73;8.97;;;-1.60;99.90;;;;;;4152923;28;20554;-75
2023/01/29 08:43:25;;;;;;;23.00;10.73;;;-1.60;99.90;;;;;;4160395;28;20458;-75
2023/01/29 08:45:28;;;;;;;21.23;10.57;;;-1.50;99.90;;;;;;4150520;28;20500;-75
2023/01/29 08:47:30;;;;;;;21.67;9.57;;;-1.60;99.90;;;;;;4154141;28;21117;-75
2023/01/29 08:49:32;;;;;;;25.93;11.17;;;-1.50;99.90;;;;;;4155908;28;20489;-75
2023/01/29 08:51:36;;;;;;;26.03;11.43;;;-1.60;99.90;;;;;;4148718;28;20455;-75
2023/01/29 08:53:37;;;;;;;31.80;13.27;;;-1.60;99.90;;;;;;4154248;28;20513;-75
2023/01/29 08:55:40;;;;;;;28.53;12.33;;;-1.60;99.90;;;;;;4153924;28;20498;-75
2023/01/29 08:57:42;;;;;;;27.63;11.43;;;-1.60;99.90;;;;;;4154822;28;20567;-75
2023/01/29 08:59:44;;;;;;;27.97;11.90;;;-1.50;99.90;;;;;;4149589;28;20461;-75
2023/01/29 09:01:46;;;;;;;28.17;11.13;;;-1.50;99.90;;;;;;4150493;28;20470;-75
2023/01/29 09:03:49;;;;;;;30.40;12.27;;;-1.50;99.90;;;;;;4168474;28;20457;-75
2023/01/29 09:05:50;;;;;;;24.47;12.00;;;-1.50;99.90;;;;;;4154618;28;20866;-75
2023/01/29 09:07:54;;;;;;;24.60;11.07;;;-1.50;99.90;;;;;;4153331;28;20488;-75
2023/01/29 09:09:56;;;;;;;21.07;9.93;;;-1.50;99.90;;;;;;4152656;28;20822;-75
2023/01/29 09:11:58;;;;;;;20.77;9.93;;;-1.40;99.90;;;;;;4165393;28;20891;-75
2023/01/29 09:14:00;;;;;;;19.60;9.53;;;-1.40;99.90;;;;;;4152216;28;20871;-75
2023/01/29 09:16:02;;;;;;;20.33;9.83;;;-1.40;99.90;;;;;;4153077;28;20470;-75
2023/01/29 09:18:05;;;;;;;24.00;9.97;;;-1.40;99.90;;;;;;4151172;28;20463;-75
2023/01/29 09:20:08;;;;;;;23.37;10.60;;;-1.40;99.90;;;;;;4154421;28;20470;-75
2023/01/29 09:22:10;;;;;;;24.47;10.90;;;-1.40;99.90;;;;;;4153957;28;20550;-75
2023/01/29 09:24:14;;;;;;;24.83;10.77;;;-1.40;99.90;;;;;;4150409;28;20505;-75
2023/01/29 09:26:16;;;;;;;24.63;11.47;;;-1.40;99.90;;;;;;4152930;28;20491;-75
2023/01/29 09:28:18;;;;;;;27.07;11.47;;;-1.40;99.90;;;;;;4153908;28;20462;-75
2023/01/29 09:30:20;;;;;;;25.97;11.13;;;-1.30;99.90;;;;;;4150130;28;20454;-75
2023/01/29 09:32:22;;;;;;;23.93;10.40;;;-1.30;99.90;;;;;;4153900;28;20530;-75
2023/01/29 09:34:24;;;;;;;27.17;10.90;;;-1.30;99.90;;;;;;4154000;28;20451;-76
2023/01/29 09:36:25;;;;;;;26.23;11.03;;;-1.30;99.90;;;;;;4151326;28;20545;-75
2023/01/29 09:38:27;;;;;;;23.70;10.70;;;-1.20;99.90;;;;;;4153962;28;21228;-75
2023/01/29 09:40:38;;;;;;;26.27;11.37;;;-1.20;99.90;;;;;;4150880;28;20464;-75
2023/01/29 09:42:47;;;;;;;22.77;10.00;;;-1.10;99.90;;;;;;4149821;28;20447;-75
2023/01/29 09:44:56;;;;;;;27.53;11.10;;;-1.10;99.90;;;;;;4167789;28;20472;-75
2023/01/29 09:47:00;;;;;;;22.73;10.40;;;-1.00;99.90;;;;;;4151546;28;20489;-75
2023/01/29 09:49:10;;;;;;;23.63;10.63;;;-1.00;99.90;;;;;;4151906;28;20580;-75
2023/01/29 09:51:21;;;;;;;21.80;9.93;;;-1.00;99.90;;;;;;4168163;28;21393;-75
2023/01/29 09:53:31;;;;;;;23.67;10.70;;;-0.90;99.90;;;;;;4151617;28;20553;-75
2023/01/29 09:55:39;;;;;;;20.63;10.23;;;-0.90;99.90;;;;;;4153091;28;20940;-74
2023/01/29 09:57:46;;;;;;;23.17;10.60;;;-0.90;99.90;;;;;;4151642;28;21048;-74
2023/01/29 09:59:48;;;;;;;22.40;9.77;;;-0.90;99.90;;;;;;4153295;28;20501;-75
2023/01/29 10:01:59;;;;;;;20.50;10.10;;;-0.90;99.90;;;;;;4151649;28;20486;-75
2023/01/29 10:04:36;;;;;;;22.50;9.87;;;-0.80;99.90;;;;;;4157242;28;20449;-74
2023/01/29 10:06:51;;;;;;;26.10;9.80;;;-0.80;99.90;;;;;;4149679;28;20525;-75
2023/01/29 10:09:33;;;;;;;23.57;10.27;;;-0.80;99.90;;;;;;4148238;28;20528;-75
2023/01/29 10:11:50;;;;;;;25.03;9.97;;;-0.80;99.90;;;;;;4149486;28;20487;-75
2023/01/29 10:14:02;;;;;;;21.00;9.83;;;-0.70;99.90;;;;;;4151925;28;20454;-74
2023/01/29 10:16:28;;;;;;;21.90;10.10;;;-0.70;99.90;;;;;;4156012;28;20448;-74
2023/01/29 10:19:00;;;;;;;22.30;9.97;;;-0.70;99.90;;;;;;4149013;28;20540;-75
2023/01/29 10:21:13;;;;;;;25.80;11.00;;;-0.60;99.90;;;;;;4149611;28;20455;-75
2023/01/29 10:23:21;;;;;;;28.17;11.97;;;-0.60;99.90;;;;;;4165010;28;20461;-75
2023/01/29 10:25:24;;;;;;;20.40;9.87;;;-0.60;99.90;;;;;;4149345;28;20485;-75
2023/01/29 10:27:32;;;;;;;20.67;9.53;;;-0.50;99.90;;;;;;4156126;28;20833;-75
2023/01/29 10:29:35;;;;;;;20.97;10.03;;;-0.50;99.90;;;;;;4149432;28;20550;-75
2023/01/29 10:31:40;;;;;;;20.97;9.60;;;-0.50;99.90;;;;;;4150996;28;20460;-75
2023/01/29 10:33:45;;;;;;;25.60;10.47;;;-0.40;99.90;;;;;;4147717;28;20553;-75
2023/01/29 10:35:51;;;;;;;23.40;10.10;;;-0.50;99.90;;;;;;4150651;28;20454;-76
2023/01/29 10:37:54;;;;;;;21.73;10.43;;;-0.40;99.90;;;;;;4150741;28;20459;-75
2023/01/29 10:39:58;;;;;;;21.33;9.97;;;-0.40;99.90;;;;;;4153755;28;20888;-75
2023/01/29 10:42:17;;;;;;;22.20;10.23;;;-0.40;99.90;;;;;;4164419;28;20457;-75
2023/01/29 10:44:35;;;;;;;22.10;10.27;;;-0.40;99.90;;;;;;4154011;28;20452;-75
2023/01/29 10:46:56;;;;;;;20.10;9.17;;;-0.30;99.90;;;;;;4154499;28;20473;-75
2023/01/29 10:49:07;;;;;;;21.53;9.87;;;-0.20;99.90;;;;;;4149899;28;20535;-75
2023/01/29 10:51:19;;;;;;;18.87;9.70;;;-0.30;99.90;;;;;;4152392;28;20525;-75
2023/01/29 10:53:33;;;;;;;24.63;10.13;;;-0.20;99.90;;;;;;4154642;28;20459;-75
2023/01/29 10:55:47;;;;;;;23.50;9.80;;;-0.20;99.90;;;;;;4160315;28;20467;-75
2023/01/29 10:58:00;;;;;;;19.77;9.30;;;-0.10;99.90;;;;;;4156322;28;20454;-78
2023/01/29 11:00:11;;;;;;;23.67;9.90;;;-0.10;99.90;;;;;;4153815;28;20467;-79
2023/01/29 11:02:18;;;;;;;21.00;9.97;;;-0.10;99.90;;;;;;4154339;28;20459;-76
2023/01/29 11:04:20;;;;;;;23.67;9.93;;;-0.10;99.90;;;;;;4158128;28;21196;-78
2023/01/29 11:06:27;;;;;;;21.87;10.27;;;-0.10;99.90;;;;;;4154073;28;20549;-76
2023/01/29 11:08:34;;;;;;;24.50;10.47;;;-0.10;99.90;;;;;;4156092;28;20446;-77
2023/01/29 11:10:45;;;;;;;21.17;9.73;;;0.00;99.90;;;;;;4152698;28;20465;-77